Time;durP1;ratioP1;P1;durP2;ratioP2;P2;SDS_P1;SDS_P2;PMS_P1;PMS_P2;Temp;Humidity;BMP_temperature;BMP_pressure;BME280_temperature;BME280_humidity;BME280_pressure;Samples;Min_cycle;Max_cycle;Signal;HPM_P1;HPM_P2
2022/04/17 00:00:16;;;;;;;3.57;2.40;;;;;;;7.05;44.15;99711.63;5093197;28;20195;-54
2022/04/17 00:02:43;;;;;;;6.30;2.63;;;;;;;7.11;42.13;99725.13;5093894;28;20184;-55
2022/04/17 00:05:10;;;;;;;2.60;2.27;;;;;;;7.33;42.90;99734.94;5093915;28;20700;-55
2022/04/17 00:07:37;;;;;;;3.73;2.23;;;;;;;7.20;43.31;99735.75;5093971;28;20190;-54
2022/04/17 00:10:05;;;;;;;5.83;2.53;;;;;;;7.08;42.97;99736.56;5093084;28;20180;-54
2022/04/17 00:12:33;;;;;;;3.50;2.33;;;;;;;7.20;42.79;99732.31;5093863;28;20186;-55
2022/04/17 00:15:01;;;;;;;3.77;2.70;;;;;;;7.08;43.31;99727.00;5094122;28;20208;-55
2022/04/17 00:17:28;;;;;;;4.27;2.60;;;;;;;6.94;46.12;99714.09;5093656;28;20188;-54
2022/04/17 00:19:55;;;;;;;4.77;2.57;;;;;;;6.74;46.76;99712.78;5092838;28;20256;-55
2022/04/17 00:22:23;;;;;;;5.00;2.97;;;;;;;6.74;45.88;99715.38;5093706;28;20191;-55
2022/04/17 00:24:50;;;;;;;5.33;2.73;;;;;;;6.82;45.07;99710.53;5093579;28;20207;-54
2022/04/17 00:27:16;;;;;;;3.57;2.90;;;;;;;6.67;45.79;99695.97;5093593;28;20578;-55
2022/04/17 00:29:45;;;;;;;4.30;2.83;;;;;;;6.54;48.09;99688.97;5091382;28;20198;-55
2022/04/17 00:32:12;;;;;;;5.17;2.80;;;;;;;6.58;46.66;99698.22;5093590;28;20184;-54
2022/04/17 00:34:38;;;;;;;4.60;2.70;;;;;;;6.62;46.72;99697.09;5093445;28;20207;-55
2022/04/17 00:37:06;;;;;;;6.43;3.33;;;;;;;6.73;45.88;99690.38;5093455;28;20188;-55
2022/04/17 00:39:33;;;;;;;4.60;2.63;;;;;;;6.53;47.80;99705.44;5093025;28;20197;-55
2022/04/17 00:42:04;;;;;;;4.33;2.97;;;;;;;6.60;46.03;99698.13;5092827;28;20230;-55
2022/04/17 00:44:31;;;;;;;7.27;2.93;;;;;;;6.48;46.48;99702.31;5093050;28;20197;-55
2022/04/17 00:47:00;;;;;;;3.80;2.90;;;;;;;6.50;47.14;99706.50;5093209;28;20655;-55
2022/04/17 00:49:26;;;;;;;4.90;3.67;;;;;;;6.45;47.76;99702.50;5093156;28;20187;-55
2022/04/17 00:51:54;;;;;;;4.97;3.70;;;;;;;6.31;48.41;99712.03;5092332;28;20190;-55
2022/04/17 00:54:22;;;;;;;7.77;3.20;;;;;;;6.28;48.72;99720.00;5092233;28;20191;-55
2022/04/17 00:56:49;;;;;;;6.43;3.33;;;;;;;6.39;48.06;99718.47;5092871;28;20199;-55
2022/04/17 00:59:16;;;;;;;6.60;3.57;;;;;;;6.47;46.61;99706.69;5092893;28;20195;-55
2022/04/17 01:01:43;;;;;;;6.23;3.77;;;;;;;6.39;49.28;99701.16;5092086;28;20241;-55
2022/04/17 01:04:12;;;;;;;5.60;3.87;;;;;;;6.34;47.69;99696.28;5093091;28;20231;-55
2022/04/17 01:06:40;;;;;;;8.60;4.00;;;;;;;6.42;46.62;99702.72;5092800;28;20222;-55
2022/04/17 01:09:07;;;;;;;6.10;3.53;;;;;;;6.19;47.87;99698.06;5092808;28;20280;-55
2022/04/17 01:11:38;;;;;;;6.97;3.90;;;;;;;6.18;49.01;99693.78;5091762;28;20236;-54
2022/04/17 01:14:05;;;;;;;7.20;4.50;;;;;;;6.23;50.27;99683.16;5092777;28;20262;-55
2022/04/17 01:16:32;;;;;;;6.33;4.23;;;;;;;6.15;49.62;99686.22;5092586;28;20204;-55
2022/04/17 01:19:03;;;;;;;11.07;4.47;;;;;;;6.14;49.30;99681.13;5092586;28;20263;-55
2022/04/17 01:21:32;;;;;;;5.63;4.07;;;;;;;6.11;48.80;99673.56;5091897;28;20197;-54
2022/04/17 01:26:59;;;;;;;9.27;4.50;;;;;;;6.24;49.28;99679.63;5092572;28;20678;-54
2022/04/17 01:29:30;;;;;;;7.87;4.83;;;;;;;6.30;50.87;99679.25;5092507;28;20196;-55
2022/04/17 01:31:57;;;;;;;6.60;4.43;;;;;;;6.40;48.93;99670.84;5091903;28;20243;-55
2022/04/17 01:34:24;;;;;;;6.37;4.30;;;;;;;6.29;49.32;99662.03;5092498;28;20188;-55
2022/04/17 01:36:53;;;;;;;5.93;4.10;;;;;;;6.28;49.53;99664.69;5092355;28;20270;-55
2022/04/17 01:39:20;;;;;;;6.47;4.20;;;;;;;6.30;48.79;99661.09;5092278;28;20532;-55
2022/04/17 01:41:48;;;;;;;8.97;4.30;;;;;;;6.19;49.65;99659.16;5091412;28;20198;-55
2022/04/17 01:44:17;;;;;;;7.17;4.50;;;;;;;6.15;50.66;99659.47;5092233;28;20187;-55
2022/04/17 01:46:44;;;;;;;7.63;4.47;;;;;;;6.05;49.58;99666.97;5092357;28;20533;-55
2022/04/17 01:49:11;;;;;;;7.40;4.53;;;;;;;6.18;48.76;99646.31;5092001;28;20186;-55
2022/04/17 01:51:40;;;;;;;6.72;4.13;;;;;;;6.15;49.93;99655.09;5091261;28;20901;-55
2022/04/17 01:54:10;;;;;;;6.23;4.30;;;;;;;6.20;49.98;99647.88;5092106;28;20678;-55
2022/04/17 01:56:38;;;;;;;5.47;4.03;;;;;;;6.14;50.39;99647.44;5091878;28;20215;-55
2022/04/17 01:59:06;;;;;;;7.23;4.70;;;;;;;6.06;52.01;99645.31;5091834;28;20181;-55
2022/04/17 02:01:33;;;;;;;7.57;4.33;;;;;;;6.12;51.32;99638.94;5090988;28;20215;-55
2022/04/17 02:04:01;;;;;;;8.30;4.40;;;;;;;5.95;50.75;99647.72;5091925;28;20209;-55
2022/04/17 02:06:28;;;;;;;5.33;4.17;;;;;;;5.91;49.78;99640.13;5091880;28;20237;-55
2022/04/17 02:08:55;;;;;;;6.43;3.90;;;;;;;5.91;48.92;99634.13;5091974;28;20191;-55
2022/04/17 02:11:25;;;;;;;7.83;3.83;;;;;;;5.96;50.63;99632.09;5091261;28;20186;-55
2022/04/17 02:13:52;;;;;;;5.40;4.00;;;;;;;5.99;50.05;99618.09;5091908;28;20673;-54
2022/04/17 02:16:20;;;;;;;6.10;3.73;;;;;;;5.89;49.98;99634.22;5091736;28;20207;-55
2022/04/17 02:18:47;;;;;;;6.33;3.80;;;;;;;5.96;50.11;99628.66;5091928;28;20261;-55
2022/04/17 02:21:15;;;;;;;6.57;4.00;;;;;;;5.91;50.15;99627.16;5090893;28;20229;-55
2022/04/17 02:23:43;;;;;;;8.30;4.17;;;;;;;5.88;50.64;99616.19;5091858;28;20182;-55
2022/04/17 02:26:10;;;;;;;6.23;4.07;;;;;;;5.87;50.04;99617.09;5091882;28;20257;-55
2022/04/17 02:28:40;;;;;;;5.57;4.03;;;;;;;5.82;50.44;99601.88;5091681;28;20194;-55
2022/04/17 02:31:08;;;;;;;7.00;4.40;;;;;;;5.80;49.73;99608.06;5090916;28;20650;-55
2022/04/17 02:33:35;;;;;;;5.90;4.30;;;;;;;5.70;51.07;99605.22;5091894;28;20184;-55
2022/04/17 02:36:02;;;;;;;8.23;4.03;;;;;;;5.59;51.22;99613.63;5091665;28;20746;-55
2022/04/17 02:38:29;;;;;;;5.23;3.73;;;;;;;5.56;50.95;99616.41;5091827;28;20210;-54
2022/04/17 02:40:56;;;;;;;4.43;3.67;;;;;;;5.43;51.38;99629.28;5090757;28;20203;-55
2022/04/17 02:43:23;;;;;;;4.50;3.80;;;;;;;5.32;51.10;99630.75;5091533;28;20188;-55
2022/04/17 02:45:53;;;;;;;5.93;3.87;;;;;;;5.33;50.82;99623.81;5091594;28;20202;-55
2022/04/17 02:48:19;;;;;;;10.27;4.10;;;;;;;5.28;52.48;99626.69;5091611;28;20183;-55
2022/04/17 02:50:47;;;;;;;5.87;3.70;;;;;;;5.11;52.66;99632.03;5090704;28;20182;-55
2022/04/17 02:53:14;;;;;;;4.93;3.87;;;;;;;4.99;54.33;99620.69;5091569;28;20651;-55
2022/04/17 02:55:41;;;;;;;6.13;3.80;;;;;;;4.93;51.93;99627.03;5091262;28;20206;-55
2022/04/17 02:58:07;;;;;;;7.27;4.23;;;;;;;4.93;52.80;99627.03;5091547;28;20187;-55
2022/04/17 03:05:35;;;;;;;9.37;3.90;;;;;;;4.90;53.13;99616.03;5090744;28;20243;-55
2022/04/17 03:06:09;;;;;;;5.80;3.90;;;;;;;5.03;52.21;99627.34;5091347;28;20206;-54
2022/04/17 03:08:35;;;;;;;5.70;4.37;;;;;;;5.03;53.15;99615.22;5091545;28;20179;-55
2022/04/17 03:11:02;;;;;;;7.23;4.00;;;;;;;4.93;52.90;99629.63;5090603;28;20224;-55
2022/04/17 03:13:29;;;;;;;6.40;4.03;;;;;;;4.96;51.43;99629.44;5091414;28;20202;-55
2022/04/17 03:15:56;;;;;;;6.80;3.80;;;;;;;5.15;51.76;99634.38;5091944;28;20248;-55
2022/04/17 03:18:24;;;;;;;5.23;3.83;;;;;;;5.12;52.55;99628.53;5094926;28;20190;-54
2022/04/17 03:20:51;;;;;;;5.83;3.70;;;;;;;5.22;50.80;99634.81;5093877;28;20288;-54
2022/04/17 03:23:18;;;;;;;7.00;4.17;;;;;;;5.54;49.97;99624.28;5094918;28;20213;-55
2022/04/17 03:25:45;;;;;;;5.13;3.50;;;;;;;5.66;48.77;99611.50;5094656;28;20229;-55
2022/04/17 03:28:11;;;;;;;6.80;4.33;;;;;;;5.68;47.36;99620.84;5094894;28;20187;-54
2022/04/17 03:30:38;;;;;;;8.30;3.73;;;;;;;5.69;48.77;99619.09;5093906;28;20235;-55
2022/04/17 03:33:05;;;;;;;7.57;3.83;;;;;;;5.78;47.87;99607.31;5094587;28;20186;-55
2022/04/17 03:35:33;;;;;;;6.80;3.70;;;;;;;5.75;48.96;99609.16;5094421;28;20715;-55
2022/04/17 03:38:01;;;;;;;5.67;3.70;;;;;;;5.74;47.22;99599.72;5094746;28;20189;-55
2022/04/17 03:40:28;;;;;;;5.60;3.60;;;;;;;5.84;47.34;99583.63;5093807;28;20188;-55
2022/04/17 03:42:58;;;;;;;6.00;4.23;;;;;;;5.77;48.24;99598.72;5094373;28;20205;-55
2022/04/17 03:45:24;;;;;;;6.13;3.70;;;;;;;5.63;48.94;99584.03;5094320;28;20708;-55
2022/04/17 03:47:52;;;;;;;4.47;3.07;;;;;;;5.52;48.85;99589.03;5094254;28;20178;-55
2022/04/17 03:50:20;;;;;;;4.83;3.27;;;;;;;5.49;48.12;99571.09;5093468;28;20274;-55
2022/04/17 03:52:49;;;;;;;6.67;3.30;;;;;;;5.58;48.47;99586.91;5094284;28;20174;-55
2022/04/17 03:55:16;;;;;;;4.77;3.50;;;;;;;5.56;47.44;99593.09;5094073;28;20228;-55
2022/04/17 03:57:44;;;;;;;5.27;3.00;;;;;;;5.62;46.60;99584.94;5094229;28;20192;-55
2022/04/17 04:00:13;;;;;;;4.63;3.20;;;;;;;5.63;47.26;99559.91;5093291;28;20193;-55
2022/04/17 04:02:41;;;;;;;4.70;2.80;;;;;;;5.88;44.17;99551.41;5094248;28;20209;-55
2022/04/17 04:05:10;;;;;;;4.13;2.97;;;;;;;5.84;44.27;99553.34;5093950;28;20195;-55
2022/04/17 04:07:37;;;;;;;4.90;2.80;;;;;;;5.72;44.28;99565.31;5093996;28;20186;-55
2022/04/17 04:10:07;;;;;;;3.30;2.63;;;;;;;5.63;45.70;99567.66;5093108;28;20528;-55
2022/04/17 04:12:34;;;;;;;4.10;2.53;;;;;;;5.39;46.30;99574.25;5093878;28;20650;-55
2022/04/17 04:15:01;;;;;;;3.73;2.40;;;;;;;5.36;46.12;99566.66;5093685;28;20247;-55
2022/04/17 04:17:28;;;;;;;4.50;2.67;;;;;;;5.22;47.06;99570.13;5093859;28;20665;-55
2022/04/17 04:19:55;;;;;;;4.50;2.77;;;;;;;5.16;47.82;99579.09;5092942;28;20182;-55
2022/04/17 04:22:22;;;;;;;4.70;2.30;;;;;;;5.20;45.45;99579.72;5093621;28;20208;-55
2022/04/17 04:24:49;;;;;;;2.67;2.30;;;;;;;5.32;46.55;99575.56;5093499;28;20206;-54
2022/04/17 04:30:01;;;;;;;3.60;2.47;;;;;;;5.12;47.76;99576.78;5092746;28;20596;-55
2022/04/17 04:32:28;;;;;;;3.40;2.33;;;;;;;4.85;48.85;99578.34;5093270;28;20175;-55
2022/04/17 04:34:59;;;;;;;3.77;2.70;;;;;;;4.66;51.23;99583.75;5093484;28;20206;-55
2022/04/17 04:37:26;;;;;;;2.83;2.10;;;;;;;4.36;51.42;99574.25;5093400;28;20629;-54
2022/04/17 04:39:53;;;;;;;3.50;2.53;;;;;;;4.19;52.11;99575.22;5091035;28;20586;-55
2022/04/17 04:42:22;;;;;;;5.73;2.47;;;;;;;4.19;51.63;99572.63;5093231;28;20209;-55
2022/04/17 04:46:06;;;;;;;4.90;2.63;;;;;;;4.25;51.57;99574.03;5093395;28;20213;-55
2022/04/17 04:47:35;;;;;;;3.23;2.37;;;;;;;4.31;50.00;99572.84;5093144;28;20194;-55
2022/04/17 04:50:02;;;;;;;4.73;2.67;;;;;;;4.21;53.43;99575.97;5092437;28;20537;-54
2022/04/17 04:52:29;;;;;;;3.30;2.17;;;;;;;4.08;53.82;99568.06;5092956;28;20229;-55
2022/04/17 04:54:56;;;;;;;4.70;2.17;;;;;;;3.93;53.82;99563.75;5092915;28;20272;-55
2022/04/17 04:57:25;;;;;;;3.17;2.50;;;;;;;3.80;54.06;99571.34;5093184;28;20178;-54
2022/04/17 04:59:51;;;;;;;3.33;2.40;;;;;;;3.68;55.30;99553.03;5092140;28;20254;-54
2022/04/17 05:02:20;;;;;;;3.90;2.80;;;;;;;3.64;55.65;99548.13;5091478;28;20584;-55
2022/04/17 05:04:47;;;;;;;5.10;2.33;;;;;;;3.54;57.33;99550.34;5092708;28;20266;-55
2022/04/17 05:07:14;;;;;;;5.27;2.50;;;;;;;3.54;57.95;99561.53;5092794;28;20182;-55
2022/04/17 05:09:41;;;;;;;4.50;2.30;;;;;;;3.50;56.73;99564.34;5091963;28;20186;-55
2022/04/17 05:12:08;;;;;;;3.37;2.40;;;;;;;3.51;57.95;99566.00;5092892;28;20174;-55
2022/04/17 05:14:40;;;;;;;3.37;2.37;;;;;;;3.57;58.87;99567.44;5092643;28;20250;-55
2022/04/17 05:17:06;;;;;;;3.43;2.30;;;;;;;3.47;57.92;99564.50;5092690;28;20231;-54
2022/04/17 05:19:33;;;;;;;4.10;2.50;;;;;;;3.42;57.13;99567.34;5092105;28;20186;-55
2022/04/17 05:22:02;;;;;;;3.90;2.40;;;;;;;3.40;57.55;99561.44;5092433;28;20216;-54
2022/04/17 05:24:29;;;;;;;4.33;2.30;;;;;;;3.45;59.35;99564.59;5092484;28;20600;-55
2022/04/17 05:26:56;;;;;;;4.03;2.53;;;;;;;3.45;56.70;99572.34;5091137;28;20660;-55
2022/04/17 05:29:23;;;;;;;2.70;2.30;;;;;;;3.47;56.85;99574.84;5092461;28;20190;-55
2022/04/17 05:31:52;;;;;;;3.63;2.10;;;;;;;3.50;59.59;99578.09;5091562;28;20651;-55
2022/04/17 05:34:19;;;;;;;5.73;2.53;;;;;;;3.49;59.54;99585.91;5092287;28;20222;-55
2022/04/17 05:36:48;;;;;;;5.43;2.87;;;;;;;3.50;58.06;99585.00;5092360;28;20548;-55
2022/04/17 05:39:15;;;;;;;19.63;13.63;;;;;;;3.53;60.21;99585.69;5091765;28;20187;-55
2022/04/17 05:41:42;;;;;;;12.70;8.73;;;;;;;3.52;59.80;99584.00;5091462;28;20202;-54
2022/04/17 05:44:09;;;;;;;17.90;11.43;;;;;;;3.46;60.95;99580.91;5092233;28;20236;-55
2022/04/17 05:46:37;;;;;;;6.17;4.73;;;;;;;3.40;62.60;99582.09;5092161;28;20213;-55
2022/04/17 05:49:06;;;;;;;5.50;4.00;;;;;;;3.32;62.54;99585.06;5092168;28;20186;-55
2022/04/17 05:51:34;;;;;;;7.73;4.30;;;;;;;3.26;62.90;99585.38;5091422;28;20190;-53
2022/04/17 05:54:07;;;;;;;6.17;4.07;;;;;;;3.22;63.56;99582.13;5092188;28;20215;-54
2022/04/17 05:56:34;;;;;;;5.80;3.40;;;;;;;3.21;63.94;99589.94;5092027;28;20677;-55
2022/04/17 05:59:01;;;;;;;6.17;3.80;;;;;;;3.15;63.20;99593.69;5091900;28;20189;-54
2022/04/17 06:01:29;;;;;;;5.90;4.20;;;;;;;3.15;64.73;99598.84;5091149;28;20273;-54
2022/04/17 06:03:55;;;;;;;5.30;3.50;;;;;;;3.15;65.52;99591.09;5092171;28;20231;-54
2022/04/17 06:06:24;;;;;;;4.90;3.43;;;;;;;3.09;65.21;99597.44;5091942;28;20267;-55
2022/04/17 06:08:50;;;;;;;6.70;3.63;;;;;;;3.09;64.62;99591.41;5092015;28;20198;-54
2022/04/17 06:11:18;;;;;;;4.37;2.90;;;;;;;3.06;64.42;99591.56;5091088;28;20189;-54
2022/04/17 06:13:44;;;;;;;6.33;3.67;;;;;;;3.11;65.21;99597.34;5091783;28;20195;-54
2022/04/17 06:16:11;;;;;;;3.90;3.33;;;;;;;3.17;65.61;99594.44;5091753;28;20339;-54
2022/04/17 06:18:38;;;;;;;3.83;2.77;;;;;;;3.22;65.72;99589.03;5091854;28;20193;-55
2022/04/17 06:21:05;;;;;;;6.70;6.00;;;;;;;3.32;63.62;99592.78;5090999;28;20186;-54
2022/04/17 06:23:34;;;;;;;4.60;3.45;;;;;;;3.37;63.92;99597.72;5090599;28;20436;-55
2022/04/17 06:26:01;;;;;;;3.73;3.20;;;;;;;3.49;62.95;99599.66;5091970;28;20206;-54
2022/04/17 06:28:28;;;;;;;4.90;3.10;;;;;;;3.59;64.27;99594.00;5091741;28;20708;-54
2022/04/17 06:30:54;;;;;;;6.03;3.53;;;;;;;3.65;64.16;99591.91;5090950;28;20188;-55
2022/04/17 06:33:21;;;;;;;7.27;3.50;;;;;;;3.74;63.80;99595.75;5091767;28;20212;-55
2022/04/17 06:35:48;;;;;;;6.10;3.67;;;;;;;3.83;63.66;99592.66;5091703;28;20279;-55
2022/04/17 06:38:15;;;;;;;4.17;2.77;;;;;;;3.92;63.35;99590.50;5091876;28;20194;-54
2022/04/17 06:40:44;;;;;;;4.53;2.90;;;;;;;4.06;63.26;99582.81;5090768;28;20470;-54
2022/04/17 06:43:11;;;;;;;3.70;2.93;;;;;;;4.18;61.68;99589.06;5091567;28;20677;-55
2022/04/17 06:45:39;;;;;;;4.27;2.23;;;;;;;4.26;62.62;99586.03;5091683;28;20203;-55
2022/04/17 06:48:14;;;;;;;4.63;2.43;;;;;;;4.44;62.07;99591.91;5091548;28;20182;-55
2022/04/17 06:50:41;;;;;;;8.90;5.10;;;;;;;4.70;60.16;99597.34;5092507;28;20207;-54
2022/04/17 06:53:08;;;;;;;8.33;5.70;;;;;;;5.03;60.57;99596.28;5095262;28;20642;-54
2022/04/17 06:55:35;;;;;;;3.87;2.73;;;;;;;5.14;60.43;99593.88;5095196;28;20214;-55
2022/04/17 06:58:03;;;;;;;3.20;2.30;;;;;;;5.35;61.44;99596.06;5095300;28;20197;-55
2022/04/17 07:00:30;;;;;;;10.23;4.10;;;;;;;5.49;59.94;99599.59;5094411;28;20190;-54
2022/04/17 07:02:57;;;;;;;7.13;3.90;;;;;;;5.64;60.92;99593.47;5095068;28;20214;-55
2022/04/17 07:05:24;;;;;;;5.57;3.47;;;;;;;5.79;60.05;99581.31;5095305;28;20238;-55
2022/04/17 07:07:58;;;;;;;5.20;2.77;;;;;;;5.89;62.27;99572.00;5095361;28;20221;-55
2022/04/17 07:10:25;;;;;;;3.87;2.50;;;;;;;6.02;61.54;99572.13;5094345;28;20266;-55
2022/04/17 07:12:53;;;;;;;7.03;4.10;;;;;;;6.12;58.31;99567.16;5094989;28;20182;-55
2022/04/17 07:15:22;;;;;;;15.87;14.17;;;;;;;6.31;58.24;99564.22;5093537;28;20578;-55
2022/04/17 07:17:49;;;;;;;18.83;16.43;;;;;;;6.50;56.90;99570.78;5095047;28;20187;-55
2022/04/17 07:20:17;;;;;;;5.03;3.57;;;;;;;6.62;54.96;99567.38;5093805;28;20202;-56
2022/04/17 07:22:46;;;;;;;3.80;2.43;;;;;;;6.81;54.62;99560.13;5094970;28;20227;-55
2022/04/17 07:25:14;;;;;;;4.20;2.40;;;;;;;6.91;52.56;99558.53;5094722;28;20578;-55
2022/04/17 07:27:42;;;;;;;5.97;2.90;;;;;;;7.09;52.20;99556.47;5094921;28;20180;-54
2022/04/17 07:30:11;;;;;;;3.73;2.80;;;;;;;7.31;52.33;99571.41;5093857;28;20270;-55
2022/04/17 07:32:40;;;;;;;4.00;2.50;;;;;;;7.48;51.88;99559.00;5094815;28;20189;-55
2022/04/17 07:35:08;;;;;;;4.30;2.63;;;;;;;7.68;48.78;99557.59;5094506;28;20699;-55
2022/04/17 07:37:36;;;;;;;4.10;2.80;;;;;;;7.86;49.00;99544.22;5093380;28;20615;-55
2022/04/17 07:40:08;;;;;;;5.83;3.40;;;;;;;7.99;47.74;99547.59;5093836;28;20192;-55
2022/04/17 07:42:35;;;;;;;3.97;2.70;;;;;;;8.17;48.75;99549.78;5094499;28;20200;-55
2022/04/17 07:45:02;;;;;;;5.13;2.80;;;;;;;8.29;50.36;99546.28;5094361;28;20212;-55
2022/04/17 07:47:30;;;;;;;5.20;2.90;;;;;;;8.39;51.27;99549.88;5094235;28;20199;-55
2022/04/17 07:49:58;;;;;;;6.67;3.50;;;;;;;8.51;47.78;99552.50;5093572;28;20203;-55
2022/04/17 07:52:25;;;;;;;3.30;2.10;;;;;;;8.65;45.90;99539.28;5094325;28;20189;-55
2022/04/17 07:54:52;;;;;;;4.30;2.60;;;;;;;8.75;44.15;99543.81;5094108;28;20231;-55
2022/04/17 07:57:19;;;;;;;3.83;2.17;;;;;;;8.97;41.51;99546.44;5094250;28;20241;-55
2022/04/17 07:59:46;;;;;;;3.43;1.70;;;;;;;9.10;37.84;99540.28;5093323;28;20187;-55
2022/04/17 08:02:22;;;;;;;2.65;1.73;;;;;;;9.34;36.90;99541.94;5092685;28;21011;-53
2022/04/17 08:04:51;;;;;;;2.90;1.83;;;;;;;9.48;37.53;99538.22;5094216;28;20249;-54
2022/04/17 08:07:19;;;;;;;5.27;1.90;;;;;;;9.65;36.14;99537.72;5094109;28;20215;-54
2022/04/17 08:09:46;;;;;;;5.13;1.90;;;;;;;9.78;36.12;99532.34;5093256;28;20187;-53
2022/04/17 08:12:13;;;;;;;3.30;1.87;;;;;;;9.84;37.63;99542.28;5094007;28;20188;-54
2022/04/17 08:14:40;;;;;;;3.37;1.60;;;;;;;9.99;33.68;99524.59;5093791;28;20216;-53
2022/04/17 08:17:07;;;;;;;2.07;1.50;;;;;;;10.11;37.69;99527.13;5094085;28;20183;-55
2022/04/17 08:19:35;;;;;;;3.40;1.70;;;;;;;10.16;34.78;99533.63;5093519;28;20212;-55
2022/04/17 08:22:02;;;;;;;3.37;1.60;;;;;;;10.24;34.42;99529.56;5093678;28;20187;-55
2022/04/17 08:24:30;;;;;;;4.23;1.53;;;;;;;10.38;35.37;99531.88;5093566;28;20667;-55
2022/04/17 08:26:59;;;;;;;3.60;2.03;;;;;;;10.59;33.25;99529.28;5093381;28;20193;-55
2022/04/17 08:29:26;;;;;;;4.13;1.23;;;;;;;10.82;31.35;99536.97;5093373;28;20715;-55
2022/04/17 08:31:53;;;;;;;1.60;1.43;;;;;;;10.85;31.23;99533.25;5092902;28;20191;-54
2022/04/17 08:34:19;;;;;;;1.77;1.00;;;;;;;10.83;30.61;99537.78;5093324;28;20185;-55
2022/04/17 08:36:46;;;;;;;6.77;1.57;;;;;;;10.83;33.24;99529.94;5093222;28;20652;-55
2022/04/17 08:39:13;;;;;;;3.00;2.00;;;;;;;10.88;32.00;99533.00;5093349;28;20188;-55
2022/04/17 08:41:44;;;;;;;4.77;2.30;;;;;;;10.97;33.08;99534.00;5092349;28;20187;-55
2022/04/17 08:44:11;;;;;;;4.30;1.80;;;;;;;11.14;33.85;99532.56;5093181;28;20193;-55
2022/04/17 08:46:38;;;;;;;1.77;1.03;;;;;;;11.17;32.23;99533.09;5093126;28;20612;-55
2022/04/17 08:49:07;;;;;;;1.87;1.20;;;;;;;11.23;30.44;99526.53;5093268;28;20182;-55
2022/04/17 08:51:34;;;;;;;3.80;1.53;;;;;;;11.50;29.60;99532.94;5092432;28;20242;-55
2022/04/17 08:54:01;;;;;;;2.30;1.20;;;;;;;11.72;28.46;99538.88;5092942;28;20692;-55
2022/04/17 08:56:28;;;;;;;2.37;1.10;;;;;;;11.80;26.66;99520.72;5092835;28;20251;-55
2022/04/17 08:58:58;;;;;;;1.23;1.03;;;;;;;11.85;29.11;99526.34;5092967;28;20646;-55
2022/04/17 09:01:25;;;;;;;1.57;1.10;;;;;;;11.96;27.66;99522.81;5092333;28;20190;-55
2022/04/17 09:03:52;;;;;;;1.90;1.40;;;;;;;12.03;26.92;99516.09;5092948;28;20508;-55
2022/04/17 09:06:19;;;;;;;2.03;1.20;;;;;;;12.07;27.26;99514.00;5093027;28;20209;-55
2022/04/17 09:09:04;;;;;;;3.10;1.20;;;;;;;12.14;28.54;99507.25;5092924;28;20220;-55
2022/04/17 09:11:32;;;;;;;1.47;1.10;;;;;;;12.20;29.85;99509.31;5092072;28;20190;-55
2022/04/17 09:14:02;;;;;;;3.63;1.00;;;;;;;12.29;28.96;99494.53;5091731;28;20189;-55
2022/04/17 09:16:30;;;;;;;1.90;1.07;;;;;;;12.51;28.90;99490.78;5092625;28;20761;-55
2022/04/17 09:18:58;;;;;;;3.53;1.23;;;;;;;12.55;26.33;99491.31;5092435;28;20187;-55
2022/04/17 09:21:29;;;;;;;1.73;0.90;;;;;;;12.53;25.61;99493.25;5091771;28;20188;-54
2022/04/17 09:24:13;;;;;;;4.60;1.00;;;;;;;12.59;27.37;99474.34;5092468;28;20260;-55
2022/04/17 09:26:48;;;;;;;1.30;1.00;;;;;;;12.74;25.33;99469.47;5092413;28;20203;-55
2022/04/17 09:29:19;;;;;;;2.20;1.10;;;;;;;12.89;27.09;99459.34;5092472;28;20219;-55
2022/04/17 09:31:47;;;;;;;2.47;1.33;;;;;;;12.94;29.08;99459.75;5091298;28;20260;-55
2022/04/17 09:34:14;;;;;;;1.40;1.03;;;;;;;13.03;25.22;99463.28;5092300;28;20183;-54
2022/04/17 09:36:41;;;;;;;1.90;1.00;;;;;;;13.11;26.21;99455.50;5092265;28;20264;-54
2022/04/17 09:39:13;;;;;;;2.20;1.10;;;;;;;13.18;24.94;99450.53;5092342;28;20187;-54
2022/04/17 09:41:52;;;;;;;1.00;0.80;;;;;;;13.25;25.27;99448.13;5091457;28;20656;-55
2022/04/17 09:44:34;;;;;;;1.30;0.90;;;;;;;13.29;26.27;99450.28;5092048;28;20242;-55
2022/04/17 09:47:01;;;;;;;1.77;1.00;;;;;;;13.23;27.15;99443.03;5092279;28;20538;-55
2022/04/17 09:49:28;;;;;;;3.20;1.30;;;;;;;13.32;27.45;99433.44;5092039;28;20248;-55
2022/04/17 09:52:07;;;;;;;4.23;1.20;;;;;;;13.48;31.55;99438.03;5091660;28;20188;-55
2022/04/17 09:54:33;;;;;;;2.47;1.20;;;;;;;13.51;30.11;99440.38;5091854;28;20164;-56
2022/04/17 09:57:00;;;;;;;1.23;0.83;;;;;;;13.58;26.55;99436.19;5092010;28;20529;-55
2022/04/17 09:59:29;;;;;;;1.03;0.80;;;;;;;13.77;25.09;99434.38;5092064;28;20190;-56
2022/04/17 10:01:57;;;;;;;1.50;1.03;;;;;;;13.82;25.95;99436.53;5091592;28;20187;-55
2022/04/17 10:04:25;;;;;;;3.73;1.20;;;;;;;13.88;24.12;99428.88;5091930;28;20213;-55
2022/04/17 10:06:54;;;;;;;0.90;0.70;;;;;;;13.83;25.23;99422.44;5092119;28;20190;-55
2022/04/17 10:09:21;;;;;;;1.43;0.80;;;;;;;13.92;24.90;99424.13;5091912;28;20200;-55
2022/04/17 10:11:49;;;;;;;1.60;0.90;;;;;;;14.00;24.80;99424.19;5091255;28;20199;-55
2022/04/17 10:14:16;;;;;;;1.13;1.00;;;;;;;14.03;25.29;99417.84;5092055;28;20242;-55
2022/04/17 10:16:46;;;;;;;2.53;0.90;;;;;;;14.07;26.12;99405.22;5091910;28;20186;-55
2022/04/17 10:19:15;;;;;;;1.97;0.90;;;;;;;14.08;26.58;99401.59;5091850;28;20188;-55
2022/04/17 10:21:42;;;;;;;2.80;0.87;;;;;;;14.17;26.26;99405.94;5090946;28;20191;-55
2022/04/17 10:24:13;;;;;;;1.50;0.87;;;;;;;14.23;26.01;99405.31;5091699;28;20572;-55
2022/04/17 10:26:45;;;;;;;1.77;1.00;;;;;;;14.14;25.10;99401.84;5095381;28;20218;-55
2022/04/17 10:29:17;;;;;;;1.40;0.70;;;;;;;14.25;25.07;99407.81;5095920;28;20191;-55
2022/04/17 10:31:59;;;;;;;1.53;0.80;;;;;;;14.31;25.02;99401.91;5095147;28;20650;-55
2022/04/17 10:34:58;;;;;;;1.80;0.97;;;;;;;14.34;25.84;99388.47;5095883;28;20222;-55
2022/04/17 10:38:03;;;;;;;2.13;0.90;;;;;;;14.47;25.64;99394.09;5095817;28;20666;-54
2022/04/17 10:40:31;;;;;;;0.70;0.67;;;;;;;14.50;26.26;99386.91;5015854;28;20212;-55
2022/04/17 10:43:00;;;;;;;1.90;1.13;;;;;;;14.54;26.49;99389.06;5095622;28;20212;-55
2022/04/17 10:45:31;;;;;;;1.37;0.90;;;;;;;14.49;25.35;99380.00;5095541;28;20204;-55
2022/04/17 10:48:09;;;;;;;2.37;0.93;;;;;;;14.68;25.16;99384.19;5095654;28;20188;-55
2022/04/17 10:50:52;;;;;;;2.27;0.90;;;;;;;14.87;25.22;99383.94;5094647;28;20192;-55
2022/04/17 10:53:26;;;;;;;2.20;0.70;;;;;;;14.95;25.06;99385.78;5095460;28;20184;-55
2022/04/17 10:56:03;;;;;;;2.30;0.80;;;;;;;15.11;25.16;99387.63;5095072;28;20218;-54
2022/04/17 10:58:37;;;;;;;1.53;0.73;;;;;;;14.97;23.87;99390.88;5095350;28;20270;-55
2022/04/17 11:01:05;;;;;;;1.70;0.70;;;;;;;14.95;23.29;99391.03;5094350;28;20266;-54
2022/04/17 11:03:38;;;;;;;1.37;0.77;;;;;;;14.88;22.54;99400.53;5095250;28;20212;-54
2022/04/17 11:06:30;;;;;;;2.00;1.00;;;;;;;14.89;23.44;99381.16;5095198;28;20215;-54
2022/04/17 11:09:05;;;;;;;1.90;1.00;;;;;;;14.91;24.16;99384.44;5095305;28;20197;-55
2022/04/17 11:11:36;;;;;;;1.43;0.80;;;;;;;14.98;23.90;99384.63;5094365;28;20192;-55
2022/04/17 11:14:08;;;;;;;1.80;0.73;;;;;;;15.15;24.16;99374.97;5095066;28;20185;-55
2022/04/17 11:16:46;;;;;;;1.53;0.70;;;;;;;15.07;24.44;99375.78;5095130;28;20290;-55
2022/04/17 11:19:17;;;;;;;1.50;0.90;;;;;;;15.19;24.46;99377.09;5095048;28;20199;-55
2022/04/17 11:21:45;;;;;;;1.00;0.83;;;;;;;15.19;23.43;99357.88;5094251;28;20449;-55
2022/04/17 11:24:13;;;;;;;1.10;0.80;;;;;;;15.22;24.40;99370.72;5094708;28;20254;-55
2022/04/17 11:27:07;;;;;;;1.17;0.93;;;;;;;15.34;24.02;99355.44;5094761;28;20732;-55
2022/04/17 11:29:39;;;;;;;3.20;0.70;;;;;;;15.57;25.35;99365.31;5094403;28;20198;-55
2022/04/17 11:32:45;;;;;;;0.90;0.73;;;;;;;15.54;22.74;99363.81;5094949;28;20192;-55
2022/04/17 11:35:15;;;;;;;1.97;0.87;;;;;;;15.62;23.51;99347.22;5094841;28;20196;-55
2022/04/17 11:37:51;;;;;;;1.17;0.93;;;;;;;15.76;23.35;99356.22;5093535;28;20195;-55
2022/04/17 11:40:20;;;;;;;1.33;0.87;;;;;;;15.86;23.27;99350.81;5093859;28;20710;-55
2022/04/17 11:42:49;;;;;;;2.07;0.90;;;;;;;16.02;23.20;99345.50;5094425;28;20222;-55
2022/04/17 11:45:18;;;;;;;1.03;0.73;;;;;;;16.11;24.40;99333.16;5094585;28;20214;-55
2022/04/17 11:47:47;;;;;;;1.43;0.80;;;;;;;16.23;23.06;99330.97;5094463;28;20185;-55
2022/04/17 11:50:26;;;;;;;2.77;1.10;;;;;;;16.27;25.80;99323.56;5093625;28;20196;-56
2022/04/17 11:52:54;;;;;;;3.13;0.87;;;;;;;16.39;22.92;99324.84;5094346;28;20189;-56
2022/04/17 11:55:25;;;;;;;1.67;0.80;;;;;;;16.34;22.59;99319.25;5093935;28;20598;-55